Miramar Marine Corps Air Station
KNKX : now visible

Airfield :











YOU CAN JOIN US ON...

 
LOGIN :

Register | Disclaimer

   EN    FR    IT 

 









Legend :    VFR   Marginal VFR   IFR   Intensive IFR   Very Intensive IFR
Visi :
Ceiling :
>= 8 km
>= 3000ft
5 to 8 km
1000 to 3000 ft
1500m to 5 km
500 to 1000 ft
800 to 1500m
200 to 500 ft
< 800m
< 200 ft
Symbols :   Thunderstorms  Fog  Heavy snow  Heavy precipitations  Wind > 20 kt






- Airport Elevation : 477 ft


KNKX - Miramar Marine Corps Air Station

CURRENT METAR :
  • 092355Z 22009KT 10SM BKN055 OVC080 15/08 A3006 RMK AO2 SLP176 60003 T01500083 10183 20128 56014

EXPIRED METARs :
  • 092255Z 20008KT 10SM SCT045 BKN060 BKN100 17/08 A3006 RMK AO2 SLP176 T01670083
  • 092155Z 21009KT 10SM BKN060 17/08 A3008 RMK AO2 SLP182 T01720083

TAF TAF KNKX
Valid from the 09 at 21:00 until the 10 at 21:00 UTC


0921/1021 21010KT 9999 FEW030 SCT055 BKN075 QNH3006INS
BECMG 1000/1002 VRB05KT 6000 -SHRA BR BKN020 BKN035 OVC045 QNH3004INS
FM100530 18008KT 3200 RA BR BKN010 BKN025 OVC035 QNH3007INS
TEMPO 1007/1013 1600 RA BR BKN007 BKN015 OVC030 T10/1014Z T15/1020Z



MET'MAP, your aeronautical weather chart ! - Copyright ORBIFLY December 2007 - Disclaimer

ORBIFLY MET'MAP TEAM :

Programming & Development : Alexandra Zaïnal
Concept & original design : Baudouin d'Aumeries
Assistance for programming : Marc-Olivier Méhu
Technical & hardware support : Manuel Goepfert

Contact : metmap@orbifly.com




SOURCES & CREDITS :

   NOAA       Earth
Advisory